Terminal Aerodrome Forecast
Issued by NWS

Home | Current Version | Previous Version | Text Only | Print | Product List | Glossary On
Versions: 1 2 3 4 5 6 7 8 9 10 11 12 13 14 15 16 17 18 19 20 21 22 23 24 25
000
FTUS43 KMQT 280936 AAB
TAFSAW
TAF AMD
KSAW 280936Z 2810/2906 18007KT 1/2SM FG OVC002
     FM281200 18006KT 1/2SM FG OVC003
     FM281400 19007KT 3SM BR OVC006
     FM281600 18008KT 5SM BR VCSH OVC008
     FM281800 18009KT P6SM -SHRA OVC015
     FM290100 18008KT P6SM VCSH BKN030=

USA.gov is the U.S. government's official web portal to all federal, state and local government web resources and services.